Startpagina
METAR-TAF:

METAR-TAF

Vliegvelden :

Vliegbasis Florennes

Florennes, België

breedte: 50-14N, lengte: 004-39E, hoogte: 279 m

Actueel weer

Dit bericht is 25 minuten geleden gemaakt, om 15:25 UTC
Wind 6 kt uit het noordnoordoosten
Temperatuur 0°C
Vochtigheid 69%
Druk 1015 hPa
Zicht 10 km of meer

METAR: EBFS 201525Z AUTO 02006KT 9999 NCD M00/M05 Q1015 BLU

Tijdstip: 16:50 (15:50 UTC)

Verwachting

Dit bericht is 7 uur en het 9 minuten geleden gemaakt, om 08:41 UTC
Verwachting geldig van 20 om 10 UTC tot 20 om 19 UTC
Wind 6 kt uit het oosten
Zicht 10 km of meer
Weinig wolken op 12000 ft
Verspreide wolken op 18000 ft
Wijzigt naar
van 20 om 11 UTC tot 20 om 13 UTC
Wind 4 kt uit het noordoosten
Weinig wolken op 20000 ft

TAF: EBFS 200841Z 2010/2019 10006KT 9999 FEW120 SCT180 BECMG 2011/2013 05004KT FEW200

Waarnemingen en weersverwachtingen van meer dan 4000 vliegvelden (METAR en TAF).

De beschikbare stations zijn de gele en rode punten op de kaart.

Ga met uw muis naar het station om de naam te zien.

Klik dan om waarnemingen en weersverwachtingen te zien.

kaart wijzigen: klik op de groene knoppen met een zwart kruis om in te zoomen, op de groene knop met een streepje om uit te zoomen of op de groene pijlen voor aangrenzende kaarten.


METAR-TAF: